• Join FlightAware (Why Join?)
  • Login
  • US Flag 
10:31PM EDT


 

Airport Tracker/Info


-or-


 

Live Flight TrackerFlight Track Log ✈ AVN20 ✈ 11-Nov-2013 ✈ NVVV / VLI - YBBN / BNE

Flight Track Log - Related Links

Times and Time Zones

All times are in EST time to prevent confusion due to time zone crossing. See the AVN20 flight status page for this flight to view local times or setup timezone preferences in your user account.

Time Position Orientation Groundspeed Altitude Reporting Facility
EST Latitude Longitude Course Direction KTS MPH feet Rate Location/Type
12:36AM -17.9284 168.0030 233° Southwest  Level FlightAware Approximate
12:37AM -17.9742 167.9395 233° Southwest  Level FlightAware Approximate
12:38AM -18.0199 167.8760 233° Southwest  Level FlightAware Approximate
12:39AM -18.0656 167.8125 233° Southwest  Level FlightAware Approximate
12:40AM -18.1113 167.7489 233° Southwest  Level FlightAware Approximate
12:41AM -18.1570 167.6853 233° Southwest  Level FlightAware Approximate
12:42AM -18.2026 167.6217 233° Southwest  Level FlightAware Approximate
12:43AM -18.2483 167.5580 233° Southwest  Level FlightAware Approximate
12:44AM -18.2939 167.4943 233° Southwest  Level FlightAware Approximate
12:45AM -18.3395 167.4306 233° Southwest  Level FlightAware Approximate
12:46AM -18.3850 167.3668 233° Southwest  Level FlightAware Approximate
12:47AM -18.4306 167.3030 233° Southwest  Level FlightAware Approximate
12:48AM -18.4761 167.2392 233° Southwest  Level FlightAware Approximate
12:49AM -18.5216 167.1754 233° Southwest  Level FlightAware Approximate
12:50AM -18.5671 167.1115 233° Southwest  Level FlightAware Approximate
12:51AM -18.6126 167.0475 233° Southwest  Level FlightAware Approximate
12:52AM -18.6580 166.9836 233° Southwest  Level FlightAware Approximate
12:53AM -18.7034 166.9196 233° Southwest  Level FlightAware Approximate
12:54AM -18.7488 166.8555 233° Southwest  Level FlightAware Approximate
12:55AM -18.7942 166.7914 233° Southwest  Level FlightAware Approximate
12:56AM -18.8395 166.7273 233° Southwest  Level FlightAware Approximate
12:57AM -18.8849 166.6632 233° Southwest  Level FlightAware Approximate
12:58AM -18.9302 166.5990 233° Southwest  Level FlightAware Approximate
12:59AM -18.9755 166.5348 233° Southwest  Level FlightAware Approximate
01:00AM -19.0207 166.4706 233° Southwest  Level FlightAware Approximate
01:01AM -19.0660 166.4063 233° Southwest  Level FlightAware Approximate
01:02AM -19.1112 166.3420 233° Southwest  Level FlightAware Approximate
01:03AM -19.1564 166.2776 233° Southwest  Level FlightAware Approximate
01:04AM -19.2016 166.2133 233° Southwest  Level FlightAware Approximate
01:05AM -19.2467 166.1488 233° Southwest  Level FlightAware Approximate
01:06AM -19.2918 166.0844 233° Southwest  Level FlightAware Approximate
01:07AM -19.3370 166.0199 233° Southwest  Level FlightAware Approximate
01:08AM -19.3820 165.9554 233° Southwest  Level FlightAware Approximate
01:09AM -19.4271 165.8908 233° Southwest  Level FlightAware Approximate
01:10AM -19.4721 165.8262 234° Southwest  Level FlightAware Approximate
01:11AM -19.5172 165.7616 234° Southwest  Level FlightAware Approximate
01:12AM -19.5621 165.6969 234° Southwest  Level FlightAware Approximate
01:13AM -19.6071 165.6322 234° Southwest  Level FlightAware Approximate
01:14AM -19.6521 165.5675 234° Southwest  Level FlightAware Approximate
01:15AM -19.6970 165.5027 234° Southwest  Level FlightAware Approximate
01:16AM -19.7419 165.4379 234° Southwest  Level FlightAware Approximate
01:17AM -19.7868 165.3730 234° Southwest  Level FlightAware Approximate
01:18AM -19.8316 165.3081 234° Southwest  Level FlightAware Approximate
01:19AM -19.8764 165.2432 234° Southwest  Level FlightAware Approximate
01:20AM -19.9214 165.1783 236° Southwest  Level Estimated
01:21AM -19.9662 165.1134 234° Southwest  Level FlightAware Approximate
01:22AM -20.0110 165.0484 234° Southwest  Level FlightAware Approximate
01:23AM -20.0558 164.9834 234° Southwest  Level FlightAware Approximate
01:24AM -20.1006 164.9183 234° Southwest  Level FlightAware Approximate
01:25AM -20.1454 164.8532 234° Southwest  Level FlightAware Approximate
01:25AM -21.6013 162.6883 235° Southwest 40,000  Level Aus ATC (Calculated)
01:25AM -21.6013 162.6883 235° Southwest 40,000  Level Aus ATC (Calculated)
01:27AM -21.6749 162.5770 235° Southwest  Level FlightAware Approximate
01:28AM -21.7140 162.5179 235° Southwest  Level FlightAware Approximate
01:28AM -21.8268 162.3456 235° Southwest 40,000  Level Aus ATC (Calculated)
01:30AM -21.9002 162.2339 235° Southwest  Level FlightAware Approximate
01:31AM -21.9392 162.1745 235° Southwest  Level FlightAware Approximate
01:31AM -22.0557 161.9955 235° Southwest 40,000  Level Aus ATC (Calculated)
01:31AM -22.1056 161.9188 235° Southwest 40,000  Level Aus ATC (Calculated)
01:33AM -22.1662 161.8260 235° Southwest  Level FlightAware Approximate
01:34AM -22.2052 161.7661 235° Southwest  Level FlightAware Approximate
01:35AM -22.2443 161.7061 235° Southwest  Level FlightAware Approximate
01:36AM -22.2833 161.6461 235° Southwest  Level FlightAware Approximate
01:37AM -22.3222 161.5861 235° Southwest  Level FlightAware Approximate
01:38AM -22.3612 161.5260 235° Southwest  Level FlightAware Approximate
01:39AM -22.4001 161.4659 235° Southwest  Level FlightAware Approximate
01:40AM -22.4391 161.4058 235° Southwest  Level FlightAware Approximate
01:41AM -22.4779 161.3456 235° Southwest  Level FlightAware Approximate
01:42AM -22.5168 161.2854 235° Southwest  Level FlightAware Approximate
01:43AM -22.5557 161.2252 235° Southwest  Level FlightAware Approximate
01:44AM -22.5945 161.1649 235° Southwest  Level FlightAware Approximate
01:45AM -22.6333 161.1046 235° Southwest  Level FlightAware Approximate
01:46AM -22.6721 161.0443 235° Southwest  Level FlightAware Approximate
01:47AM -22.7108 160.9839 235° Southwest  Level FlightAware Approximate
01:48AM -22.7496 160.9235 235° Southwest  Level FlightAware Approximate
01:49AM -22.7883 160.8631 235° Southwest  Level FlightAware Approximate
01:50AM -22.8270 160.8026 235° Southwest  Level FlightAware Approximate
01:51AM -22.8657 160.7421 235° Southwest  Level FlightAware Approximate
01:52AM -22.9043 160.6816 235° Southwest  Level FlightAware Approximate
01:53AM -22.9429 160.6210 235° Southwest  Level FlightAware Approximate
01:54AM -22.9815 160.5604 235° Southwest  Level FlightAware Approximate
01:55AM -23.0201 160.4998 235° Southwest  Level FlightAware Approximate
01:56AM -23.0586 160.4391 235° Southwest  Level FlightAware Approximate
01:57AM -23.0972 160.3784 235° Southwest  Level FlightAware Approximate
01:58AM -23.1357 160.3176 235° Southwest  Level FlightAware Approximate
01:59AM -23.1742 160.2568 235° Southwest  Level FlightAware Approximate
02:00AM -23.2126 160.1960 235° Southwest  Level FlightAware Approximate
02:01AM -23.2511 160.1352 235° Southwest  Level FlightAware Approximate
02:02AM -23.2895 160.0743 236° Southwest  Level FlightAware Approximate
02:03AM -23.3279 160.0134 236° Southwest  Level FlightAware Approximate
02:04AM -23.3662 159.9524 236° Southwest  Level FlightAware Approximate
02:05AM -23.4046 159.8914 236° Southwest  Level FlightAware Approximate
02:06AM -23.4429 159.8304 236° Southwest  Level FlightAware Approximate
02:07AM -23.4812 159.7693 236° Southwest  Level FlightAware Approximate
02:07AM -24.5559 158.0195 236° Southwest 40,000  Level Aus ATC (Calculated)
02:08AM -24.5965 157.9525 236° Southwest  Level FlightAware Approximate
02:08AM -24.6536 157.8581 236° Southwest 40,000  Level Aus ATC (Calculated)
02:09AM -24.6371 157.8854 236° Southwest  Level FlightAware Approximate
02:10AM -24.7110 157.7630 236° Southwest  Level FlightAware Approximate
02:11AM -24.7515 157.6959 236° Southwest  Level FlightAware Approximate
02:12AM -24.7920 157.6286 236° Southwest  Level FlightAware Approximate
02:13AM -24.8325 157.5614 236° Southwest  Level FlightAware Approximate
02:14AM -24.8729 157.4940 236° Southwest  Level FlightAware Approximate
02:15AM -24.9133 157.4267 224° Southwest  Level Estimated
02:16AM -24.9619 157.3662 228° Southwest  Level FlightAware Approximate
02:16AM -25.2039 156.9392 57° Northeast 40,000  Level Aus ATC (Calculated)
02:18AM -25.2873 156.8387 227° Southwest  Level FlightAware Approximate
02:19AM -25.3367 156.7790 227° Southwest  Level FlightAware Approximate
02:20AM -25.3862 156.7192 228° Southwest  Level FlightAware Approximate
02:21AM -25.4356 156.6593 228° Southwest  Level FlightAware Approximate
02:22AM -25.4850 156.5994 228° Southwest  Level FlightAware Approximate
02:23AM -25.5344 156.5395 228° Southwest  Level FlightAware Approximate
02:24AM -25.5837 156.4795 228° Southwest  Level FlightAware Approximate
02:25AM -25.6331 156.4194 228° Southwest  Level FlightAware Approximate
02:26AM -25.6824 156.3593 228° Southwest  Level FlightAware Approximate
02:27AM -25.7316 156.2992 228° Southwest  Level FlightAware Approximate
02:27AM -26.0569 155.6953 54° Northeast 16,500  Level Aus ATC (Calculated)
02:28AM -26.1701 155.5709 53° Northeast 16,500 6,720 Level Aus ATC (Calculated)
02:29AM -26.1386 155.6055 225° Southwest  Level FlightAware Approximate
02:30AM -25.0667 157.1691 225° Southwest 393 452 40,000  Level Aus ATC (RADAR)
02:31AM -25.0966 157.1168 238° Southwest 395 455 40,000  Level Aus ATC (RADAR)
02:31AM -25.1336 157.0577 235° Southwest 395 455 40,000  Level Aus ATC (RADAR)
02:32AM -25.1675 156.9966 239° Southwest 394 453 40,000  Level Aus ATC (RADAR)
02:33AM -25.2040 156.9374 236° Southwest 394 453 40,000  Level Aus ATC (RADAR)
02:33AM -25.2497 156.8599 237° Southwest 394 453 40,000  Level Aus ATC (RADAR)
02:34AM -25.2763 156.8178 235° Southwest 395 455 40,000  Level Aus ATC (RADAR)
02:34AM -25.3121 156.7586 236° Southwest 393 452 40,000  Level Aus ATC (RADAR)
02:36AM -25.3932 156.6220 237° Southwest 392 451 40,000  Level Aus ATC (RADAR)
02:36AM -25.4084 156.5965 237° Southwest 393 452 40,000  Level Aus ATC (RADAR)
02:37AM -25.4428 156.5352 238° Southwest 395 455 40,000  Level Aus ATC (RADAR)
02:37AM -25.4934 156.4484 237° Southwest 397 457 40,000  Level Aus ATC (RADAR)
02:38AM -25.5297 156.3889 236° Southwest 395 455 40,000  Level Aus ATC (RADAR)
02:39AM -25.5745 156.3105 238° Southwest 396 456 40,000  Level Aus ATC (RADAR)
02:39AM -25.5999 156.2672 237° Southwest 396 456 40,000  Level Aus ATC (RADAR)
02:40AM -25.6355 156.2069 237° Southwest 396 456 40,000  Level Aus ATC (RADAR)
02:41AM -25.6966 156.1041 237° Southwest 396 456 40,000  Level Aus ATC (RADAR)
02:41AM -25.7218 156.0606 237° Southwest 397 457 40,000  Level Aus ATC (RADAR)
02:42AM -25.7684 156.0075 226° Southwest 406 467 40,000  Level Aus ATC (RADAR)
02:42AM -25.8300 155.9412 224° Southwest 407 468 40,000  Level Aus ATC (RADAR)
02:43AM -25.8782 155.8901 224° Southwest 408 470 40,000  Level Aus ATC (RADAR)
02:44AM -25.9260 155.8386 224° Southwest 407 468 40,000  Level Aus ATC (RADAR)
02:44AM -25.9731 155.7865 225° Southwest 407 468 40,000  Level Aus ATC (RADAR)
02:45AM -26.0206 155.7356 224° Southwest 406 467 40,000  Level Aus ATC (RADAR)
02:46AM -26.1099 155.6423 223° Southwest 404 465 40,000  Level Aus ATC (RADAR)
02:46AM -26.1282 155.6177 230° Southwest 406 467 40,000  Level Aus ATC (RADAR)
02:47AM -26.1769 155.5681 222° Southwest 405 466 40,000  Level Aus ATC (RADAR)
02:48AM -26.2417 155.4908 227° Southwest 406 467 40,000  Level Aus ATC (RADAR)
02:48AM -26.2890 155.4394 224° Southwest 406 467 40,000  Level Aus ATC (RADAR)
02:49AM -26.3566 155.3652 225° Southwest 408 470 40,000  Level Aus ATC (RADAR)
02:49AM -26.3904 155.3278 225° Southwest 408 470 40,000  Level Aus ATC (RADAR)
02:50AM -26.4377 155.2754 225° Southwest 410 472 40,000  Level Aus ATC (RADAR)
02:51AM -26.5131 155.1929 224° Southwest 413 475 40,000  Level Aus ATC (RADAR)
02:51AM -26.5475 155.1549 225° Southwest 416 479 40,000  Level Aus ATC (RADAR)
02:52AM -26.5961 155.1025 224° Southwest 415 478 40,000  Level Aus ATC (RADAR)
02:53AM -26.6562 155.0315 227° Southwest 416 479 40,000  Level Aus ATC (RADAR)
02:53AM -26.7050 154.9780 224° Southwest 418 481 40,000  Level Aus ATC (RADAR)
02:54AM -26.7534 154.9240 225° Southwest 420 483 40,000  Level Aus ATC (RADAR)
02:54AM -26.8022 154.8703 224° Southwest 421 484 40,000 -360 Level Aus ATC (RADAR)
02:55AM -26.8568 154.8088 225° Southwest 417 480 39,600 -600 Descending Aus ATC (RADAR)
02:56AM -26.8975 154.7626 225° Southwest 416 479 39,300 -720 Descending Aus ATC (RADAR)
02:56AM -26.9069 154.7526 225° Southwest 418 481 39,200 -780 Descending FlightAware ADS-B (NZNE)
02:56AM -26.9514 154.7014 225° Southwest 412 474 38,800 -600 Descending Aus ATC (RADAR)
02:56AM -26.9620 154.6910 225° Southwest 405 466 38,800 -540 Level FlightAware
02:57AM -27.0100 154.6370 225° Southwest 395 455 38,400 -660 Descending FlightAware
02:57AM -27.0464 154.5961 225° Southwest 418 481 38,100 -660 Descending FlightAware ADS-B (NZNE)
02:58AM -27.0980 154.5370 226° Southwest 386 444 37,700 -600 Descending FlightAware
02:59AM -27.1430 154.4860 225° Southwest 384 442 37,400 -600 Descending FlightAware
02:59AM -27.1808 154.4439 225° Southwest 378 435 37,100 -660 Descending Aus ATC (RADAR)
02:59AM -27.1900 154.4330 225° Southwest 376 433 37,000 -660 Descending FlightAware
03:00AM -27.2280 154.3910 224° Southwest 373 429 36,700 -600 Descending FlightAware
03:00AM -27.2701 154.3434 225° Southwest 368 423 36,400 -540 Descending FlightAware ADS-B (NZNE)
03:01AM -27.3123 154.2955 225° Southwest 368 423 36,100 -540 Descending FlightAware ADS-B (NZNE)
03:02AM -27.3483 154.2547 225° Southwest 352 405 35,800 -600 Descending FlightAware ADS-B (NZNE)
03:02AM -27.3862 154.2118 225° Southwest 350 403 35,500 -600 Descending FlightAware ADS-B (NZNE)
03:03AM -27.4202 154.1732 225° Southwest 342 394 35,200 -600 Descending FlightAware ADS-B (NZNE)
03:03AM -27.4544 154.1341 225° Southwest 345 397 34,900 -600 Descending FlightAware ADS-B (NZNE)
03:04AM -27.4892 154.0944 225° Southwest 345 397 34,600 -540 Descending Aus ATC (RADAR)
03:04AM -27.5102 154.0706 225° Southwest 347 399 34,500 -480 Descending FlightAware ADS-B (NZNE)
03:05AM -27.5379 154.0130 241° Southwest 334 384 34,200 -600 Descending FlightAware ADS-B (NZNE)
03:05AM -27.5340 153.9751 277° West 336 387 33,900 -600 Descending FlightAware ADS-B (NZNE)
03:05AM -27.5278 153.9593 294° West 338 389 33,900 -420 Level FlightAware ADS-B (NZNE)
03:05AM -27.5224 153.9500 303° West 344 396 33,800 -660 Descending FlightAware ADS-B (NZNE)
03:05AM -27.5070 153.9322 314° West 354 407 33,700 -540 Descending FlightAware ADS-B (NZNE)
03:06AM -27.4757 153.9159 335° Northwest 370 426 33,500 -600 Descending FlightAware ADS-B (NZNE)
03:06AM -27.4589 153.9138 354° North 371 427 33,400 -600 Descending FlightAware ADS-B (NZNE)
03:06AM -27.4415 153.9160 North 381 438 33,300 -600 Descending FlightAware ADS-B (NZNE)
03:06AM -27.4229 153.9236 20° North 392 451 33,200 -300 Descending FlightAware ADS-B (NZNE)
03:06AM -27.4076 153.9351 34° Northeast 412 474 33,200 -360 Level FlightAware ADS-B (NZNE)
03:07AM -27.3950 153.9504 47° Northeast 418 481 33,100 -720 Descending FlightAware ADS-B (NZNE)
03:07AM -27.3582 154.0072 47° Northeast 421 484 32,700 -660 Descending Aus ATC (RADAR)
03:08AM -27.3230 154.0650 47° Northeast 424 488 32,400 -540 Descending FlightAware
03:08AM -27.3039 154.0950 54° Northeast 423 487 32,300 -480 Descending FlightAware ADS-B (NZNE)
03:09AM -27.2895 154.1716 54° Northeast 417 480 32,000 -540 Descending Aus ATC (RADAR)
03:09AM -27.3120 154.2100 54° Northeast 412 474 31,800 -720 Descending FlightAware
03:09AM -27.3480 154.2326 151° Southeast 385 443 31,500 -660 Descending FlightAware ADS-B (NZNE)
03:09AM -27.3740 154.2350 175° South 353 406 31,400 -660 Descending FlightAware ADS-B (NZNE)
03:10AM -27.3948 154.2298 192° South 342 394 31,200 -720 Descending FlightAware ADS-B (NZNE)
03:10AM -27.4120 154.2198 207° Southwest 338 389 31,100 -600 Descending FlightAware ADS-B (NZNE)
03:10AM -27.4333 154.1955 225° Southwest 322 371 30,900 -660 Descending FlightAware ADS-B (NZNE)
03:11AM -27.4670 154.1427 234° Southwest 319 367 30,500 -600 Descending FlightAware ADS-B (NZNE)
03:12AM -27.4990 154.0926 234° Southwest 324 373 30,200 -540 Descending Aus ATC (RADAR)
03:12AM -27.5050 154.0820 234° Southwest 324 373 30,100 -600 Descending FlightAware
03:12AM -27.5314 154.0161 246° West 312 359 29,700 -600 Descending FlightAware ADS-B (NZNE)
03:13AM -27.5289 153.9977 279° West 310 357 29,600 -600 Descending FlightAware ADS-B (NZNE)
03:13AM -27.5228 153.9817 293° West 309 356 29,500 -300 Descending FlightAware ADS-B (NZNE)
03:13AM -27.5149 153.9697 306° West 310 357 29,500 -480 Level FlightAware ADS-B (NZNE)
03:13AM -27.4754 153.9463 332° Northwest 325 374 29,200 -600 Descending FlightAware ADS-B (NZNE)
03:14AM -27.4596 153.9463 360° North 325 374 29,100 -600 Descending FlightAware ADS-B (NZNE)
03:14AM -27.4449 153.9503 14° North 343 395 29,000 -660 Descending FlightAware ADS-B (NZNE)
03:14AM -27.4306 153.9587 28° Northeast 344 396 28,900 -360 Descending FlightAware ADS-B (NZNE)
03:14AM -27.4205 153.9686 41° Northeast 359 413 28,900 -600 Level FlightAware ADS-B (NZNE)
03:14AM -27.4083 153.9864 52° Northeast 366 421 28,700 -780 Descending FlightAware ADS-B (NZNE)
03:15AM -27.3722 154.0430 54° Northeast 360 414 28,300 -600 Descending FlightAware ADS-B (NZNE)
03:16AM -27.3350 154.1010 54° Northeast 359 413 28,000 -480 Descending FlightAware
03:16AM -27.3000 154.1560 54° Northeast 356 410 27,700 -540 Descending FlightAware
03:17AM -27.2579 154.2213 54° Northeast 350 403 27,300 -660 Descending Aus ATC (RADAR)
03:17AM -27.2430 154.2440 54° Northeast 351 404 27,100 -600 Descending FlightAware
03:18AM -27.2000 154.3120 55° Northeast 349 402 26,700 -540 Descending FlightAware
03:18AM -27.1690 154.3590 53° Northeast 349 402 26,400 -600 Descending FlightAware
03:19AM -27.1175 154.4436 53° Northeast 345 397 25,900  Descending Aus ATC (RADAR)
03:19AM -27.1210 154.4340 53° Northeast 350 403 26,400 -600 Climbing FlightAware
03:20AM -27.1375 154.5184 102° East 360 414 25,500 -1,080 Descending FlightAware ADS-B (NZNE)
03:22AM -27.2456 154.4794 102° East 304 350 24,100 -1,140 Descending Aus ATC (RADAR)
03:22AM -27.2668 154.4482 233° Southwest 304 350 23,300 -1,740 Descending Aus ATC (RADAR)
03:23AM -27.2958 154.4043 233° Southwest 300 345 22,400 -1,440 Descending Aus ATC (RADAR)
03:23AM -27.3324 154.3479 234° Southwest 296 341 21,400 -1,320 Descending Aus ATC (RADAR)
03:24AM -27.3564 154.3114 234° Southwest 286 329 20,800 -1,380 Descending FlightAware ADS-B (NZNE)
03:24AM -27.3832 154.2701 234° Southwest 285 328 20,000 -1,440 Descending FlightAware ADS-B (NZNE)
03:25AM -27.4106 154.2281 234° Southwest 284 327 19,200 -660 Descending FlightAware ADS-B (NZNE)
03:26AM -27.4360 154.1870 234° Southwest 284 327 19,200 -1,320 Level FlightAware
03:26AM -27.4470 154.1726 234° Southwest 285 328 18,200  Descending Aus ATC (RADAR)
03:26AM -27.4590 154.1500 235° Southwest 284 327 19,200 720 Climbing FlightAware
03:27AM -27.4900 154.1000 235° Southwest 284 327 19,200 -3,240 Level FlightAware
03:27AM -27.5153 154.0651 235° Southwest 313 360 16,400 -5,700 Descending Aus ATC (RADAR)
03:28AM -27.5116 154.0085 235° Southwest 300 345 15,500 3,780 Descending Aus ATC (RADAR)
03:28AM -27.5210 154.0510 235° Southwest 284 327 19,200 -1,380 Climbing FlightAware
03:28AM -27.4996 153.9381 235° Southwest 301 346 14,500  Descending Aus ATC (RADAR)
03:29AM -27.5520 154.0010 235° Southwest 284 327 19,200 -1,320 Climbing FlightAware
03:29AM -27.4860 153.8560 297° West 307 353 13,300 -5,160 Descending FlightAware
03:30AM -27.4770 153.8030 281° West 305 351 12,500 -1,440 Descending FlightAware
03:30AM -27.4710 153.7640 280° West 302 348 11,900 -900 Descending FlightAware
03:31AM -27.4620 153.7100 281° West 301 346 11,600 -300 Descending FlightAware
03:32AM -27.4550 153.6630 281° West 301 346 11,600 -2,220 Level FlightAware
03:32AM -27.4489 153.6319 281° West 286 329 9,900 -3,840 Descending Aus ATC (RADAR)
03:32AM -27.4430 153.5957 281° West 282 325 9,300 4,080 Descending Aus ATC (RADAR)
03:32AM -27.4480 153.6160 281° West 301 346 11,600 -1,200 Climbing FlightAware
03:33AM -27.4348 153.5456 281° West 276 318 8,600 -2,940 Descending Aus ATC (RADAR)
03:34AM -27.4383 153.4823 266° West 268 308 7,700 -1,020 Descending Aus ATC (RADAR)
03:34AM -27.4622 153.4297 243° Southwest 278 320 7,200 -780 Descending Aus ATC (RADAR)
03:35AM -27.4881 153.3707 244° Southwest 280 322 6,600 -780 Descending Aus ATC (RADAR)
03:35AM -27.5024 153.3389 243° Southwest 275 316 6,300 -840 Descending Aus ATC (RADAR)
03:36AM -27.5223 153.2933 244° Southwest 277 319 5,800 -840 Descending Aus ATC (RADAR)
03:37AM -27.5531 153.2240 243° Southwest 269 310 5,100 -660 Descending Aus ATC (RADAR)
03:37AM -27.5681 153.1895 244° Southwest 249 287 4,900 -600 Descending Aus ATC (RADAR)
03:38AM -27.5842 153.1528 244° Southwest 228 262 4,500 -660 Descending Aus ATC (RADAR)
03:39AM -27.6050 153.1074 243° Southwest 219 252 4,100 -540 Descending Aus ATC (RADAR)
03:39AM -27.6062 153.0702 268° West 205 236 3,800 -600 Descending Aus ATC (RADAR)
03:40AM -27.5929 153.0304 291° West 188 216 3,300 -660 Descending Aus ATC (RADAR)
03:41AM -27.5675 153.0294 358° North 175 201 3,000 -600 Descending Aus ATC (RADAR)
03:41AM -27.5416 153.0380 16° North 164 189 2,700 -600 Descending Aus ATC (RADAR)
03:42AM -27.4996 153.0629 28° Northeast 168 193 2,100 -720 Descending Aus ATC (RADAR)
03:43AM -27.4816 153.0734 27° Northeast 150 173 1,700 -780 Descending Aus ATC (RADAR)
03:43AM -27.4629 153.0839 27° Northeast 132 152 1,300 -720 Descending Aus ATC (RADAR)
03:44AM -27.4401 153.0968 27° Northeast 123 142 800 -600 Descending Aus ATC (RADAR)
03:45AM -27.4216 153.1080 28° Northeast 129 148 500 -540 Descending Aus ATC (RADAR)